createdAt,value
2019-03-06T00:01:10.748Z,82.46
2019-03-06T00:03:42.685Z,82.33
2019-03-06T00:06:16.707Z,82.99
2019-03-06T00:08:43.384Z,83.44
2019-03-06T00:11:12.986Z,83.54
2019-03-06T00:13:42.256Z,83.54
2019-03-06T00:16:11.508Z,82.92
2019-03-06T00:18:41.980Z,82.90
2019-03-06T00:21:11.226Z,83.06
2019-03-06T00:23:41.091Z,83.60
2019-03-06T00:26:10.345Z,84.00
2019-03-06T00:28:39.586Z,84.14
2019-03-06T00:31:08.826Z,84.07
2019-03-06T00:33:38.073Z,83.88
2019-03-06T00:36:11.910Z,83.67
2019-03-06T00:38:41.138Z,83.58
2019-03-06T00:41:35.253Z,84.08
2019-03-06T00:44:05.043Z,84.48
2019-03-06T00:46:34.287Z,84.87
2019-03-06T00:49:04.602Z,84.51
2019-03-06T00:51:33.914Z,84.27
2019-03-06T00:54:04.290Z,84.12
2019-03-06T00:56:33.907Z,83.62
2019-03-06T00:59:03.465Z,83.84
2019-03-06T01:01:32.758Z,84.20
2019-03-06T01:04:02.862Z,84.04
2019-03-06T01:06:32.383Z,83.95
2019-03-06T01:09:01.596Z,83.88
2019-03-06T01:11:30.839Z,83.76
2019-03-06T01:14:00.077Z,83.95
2019-03-06T01:16:30.153Z,84.44
2019-03-06T01:18:59.678Z,84.47
2019-03-06T01:21:32.534Z,84.53
2019-03-06T01:24:02.002Z,84.50
2019-03-06T01:26:32.395Z,84.36
2019-03-06T01:29:02.515Z,84.26
2019-03-06T01:31:31.763Z,84.08
2019-03-06T01:34:38.259Z,83.81
2019-03-06T01:37:29.364Z,83.75
2019-03-06T01:40:09.434Z,83.98
2019-03-06T01:42:45.377Z,83.82
2019-03-06T01:45:14.782Z,83.91
2019-03-06T01:47:44.038Z,83.93
2019-03-06T01:50:15.835Z,83.78
2019-03-06T01:52:45.634Z,83.76
2019-03-06T01:55:16.024Z,83.73
2019-03-06T01:57:45.275Z,83.61
2019-03-06T02:00:17.601Z,83.89
2019-03-06T02:02:47.041Z,83.86
2019-03-06T02:05:17.515Z,84.21
2019-03-06T02:07:48.485Z,84.65
2019-03-06T02:10:18.876Z,85.33
2019-03-06T02:12:51.170Z,85.77
2019-03-06T02:15:20.555Z,86.00
2019-03-06T02:17:49.840Z,86.30
2019-03-06T02:20:21.010Z,86.55
2019-03-06T02:22:50.289Z,86.97
2019-03-06T02:25:19.596Z,87.53
2019-03-06T02:27:48.887Z,87.84
2019-03-06T02:30:20.252Z,88.45
2019-03-06T02:32:51.119Z,88.52
2019-03-06T02:35:20.646Z,88.69
2019-03-06T02:37:50.937Z,88.53
2019-03-06T02:40:20.223Z,88.61
2019-03-06T02:42:49.764Z,88.71
2019-03-06T02:45:19.032Z,88.44
2019-03-06T02:47:48.347Z,87.92
2019-03-06T02:50:17.591Z,87.71
2019-03-06T02:52:48.255Z,87.60
2019-03-06T02:55:17.752Z,87.48
2019-03-06T02:58:10.349Z,87.38
2019-03-06T03:00:59.512Z,87.47
2019-03-06T03:03:51.608Z,87.64
2019-03-06T03:06:26.444Z,87.96
2019-03-06T03:08:58.739Z,88.41
2019-03-06T03:11:27.972Z,88.68
2019-03-06T03:13:57.304Z,88.80
2019-03-06T03:16:29.121Z,88.78
2019-03-06T03:18:58.400Z,88.76
2019-03-06T03:21:28.021Z,88.77
2019-03-06T03:23:59.018Z,88.87
2019-03-06T03:26:29.709Z,88.90
2019-03-06T03:28:58.954Z,88.49
2019-03-06T03:31:29.113Z,88.08
2019-03-06T03:33:58.352Z,87.73
2019-03-06T03:36:29.359Z,87.41
2019-03-06T03:38:59.643Z,87.33
2019-03-06T03:41:29.335Z,87.15
2019-03-06T03:43:58.758Z,87.29
2019-03-06T03:46:28.011Z,87.54
2019-03-06T03:48:59.462Z,87.49
2019-03-06T03:51:30.722Z,87.41
2019-03-06T03:53:59.971Z,87.41
2019-03-06T03:56:29.244Z,87.43
2019-03-06T03:58:59.246Z,87.51
2019-03-06T04:01:28.502Z,88.06
2019-03-06T04:03:57.745Z,88.47
2019-03-06T04:06:28.053Z,88.93
2019-03-06T04:08:58.977Z,89.27
2019-03-06T04:11:28.231Z,89.37
2019-03-06T04:13:57.808Z,89.45
2019-03-06T04:16:27.434Z,89.47
2019-03-06T04:18:56.673Z,89.79
2019-03-06T04:21:26.214Z,89.89
2019-03-06T04:24:00.173Z,90.22
2019-03-06T04:26:29.756Z,90.40
2019-03-06T04:29:01.470Z,90.50
2019-03-06T04:31:33.014Z,90.59
2019-03-06T04:34:02.246Z,90.75
2019-03-06T04:36:31.502Z,90.89
2019-03-06T04:39:03.907Z,90.94
2019-03-06T04:41:34.047Z,90.65
2019-03-06T04:44:03.278Z,90.78
2019-03-06T04:46:33.398Z,90.72
2019-03-06T04:49:02.692Z,90.76
2019-03-06T04:51:31.976Z,90.91
2019-03-06T04:54:01.266Z,91.24
2019-03-06T04:56:30.875Z,91.27
2019-03-06T04:59:00.121Z,91.44
2019-03-06T05:01:30.574Z,91.29
2019-03-06T05:04:00.214Z,91.15
2019-03-06T05:06:29.835Z,91.04
2019-03-06T05:09:03.566Z,90.90
2019-03-06T05:11:33.338Z,90.78
2019-03-06T05:14:02.982Z,90.62
2019-03-06T05:17:09.415Z,90.47
2019-03-06T05:19:38.924Z,90.52
2019-03-06T05:22:08.834Z,90.68
2019-03-06T05:24:38.065Z,90.63
2019-03-06T05:27:07.348Z,90.83
2019-03-06T05:29:36.817Z,90.98
2019-03-06T05:32:44.846Z,91.44
2019-03-06T05:35:54.705Z,91.54
2019-03-06T05:38:35.035Z,91.67
2019-03-06T05:41:04.302Z,91.67
2019-03-06T05:43:34.844Z,92.05
2019-03-06T05:46:07.672Z,92.63
2019-03-06T05:48:36.941Z,92.71
2019-03-06T05:51:06.194Z,92.87
2019-03-06T05:53:36.642Z,92.85
2019-03-06T05:56:06.776Z,92.75
2019-03-06T05:58:36.112Z,92.82
2019-03-06T06:01:05.607Z,92.63
2019-03-06T06:03:34.869Z,92.48
2019-03-06T06:06:04.513Z,92.31
2019-03-06T06:08:34.424Z,92.35
2019-03-06T06:11:03.896Z,92.32
2019-03-06T06:13:33.215Z,92.18
2019-03-06T06:16:02.440Z,92.00
2019-03-06T06:18:31.972Z,91.86
2019-03-06T06:21:29.357Z,91.61
2019-03-06T06:24:02.261Z,91.51
2019-03-06T06:26:31.484Z,91.42
2019-03-06T06:29:00.737Z,91.11
2019-03-06T06:31:30.638Z,91.04
2019-03-06T06:34:01.032Z,90.97
2019-03-06T06:36:30.446Z,90.69
2019-03-06T06:38:59.711Z,90.56
2019-03-06T06:41:31.506Z,90.62
2019-03-06T06:44:05.797Z,90.37
2019-03-06T06:46:35.136Z,89.70
2019-03-06T06:49:04.385Z,89.40
2019-03-06T06:52:09.422Z,88.58
2019-03-06T06:55:25.710Z,88.01
2019-03-06T06:58:38.461Z,87.96
2019-03-06T07:01:46.371Z,87.68
2019-03-06T07:04:57.435Z,86.88
2019-03-06T07:07:51.571Z,85.35
2019-03-06T07:10:37.474Z,84.46
2019-03-06T07:13:15.869Z,85.63
2019-03-06T07:16:04.327Z,86.47
2019-03-06T07:18:55.300Z,87.41
2019-03-06T07:21:39.719Z,88.21
2019-03-06T07:24:43.031Z,87.90
2019-03-06T07:27:40.940Z,88.10
2019-03-06T07:30:28.529Z,89.03
2019-03-06T07:33:19.584Z,89.82
2019-03-06T07:36:21.212Z,89.83
2019-03-06T07:38:55.461Z,88.29
2019-03-06T07:41:46.817Z,87.04
2019-03-06T07:44:37.967Z,86.26
2019-03-06T07:50:29.165Z,85.24
2019-03-06T07:53:53.519Z,85.55
2019-03-06T07:56:31.722Z,84.81
2019-03-06T07:59:01.325Z,82.14
2019-03-06T08:01:33.459Z,75.42
2019-03-06T08:04:17.705Z,66.14
2019-03-06T08:06:51.448Z,65.62
2019-03-06T08:09:23.209Z,67.56
2019-03-06T08:12:05.267Z,71.07
2019-03-06T08:14:55.557Z,74.81
2019-03-06T08:17:36.510Z,76.19
2019-03-06T08:20:37.694Z,71.42
2019-03-06T08:23:27.876Z,68.74
2019-03-06T08:25:59.164Z,69.69
2019-03-06T08:28:28.383Z,68.57
2019-03-06T08:31:23.216Z,67.28
2019-03-06T08:33:55.146Z,65.56
2019-03-06T08:36:25.617Z,62.46
2019-03-06T08:38:54.834Z,59.41
2019-03-06T08:41:25.587Z,58.67
2019-03-06T08:43:55.999Z,60.38
2019-03-06T08:46:53.291Z,63.46
2019-03-06T08:49:41.817Z,65.20
2019-03-06T08:52:48.465Z,64.91
2019-03-06T08:55:48.662Z,64.55
2019-03-06T08:58:35.509Z,63.87
2019-03-06T09:02:01.232Z,60.94
2019-03-06T09:05:02.450Z,55.40
2019-03-06T09:08:01.108Z,51.86
2019-03-06T09:10:49.596Z,52.74
2019-03-06T09:13:43.645Z,52.68
2019-03-06T09:16:30.936Z,51.49
2019-03-06T09:19:17.824Z,53.03
2019-03-06T09:22:03.259Z,51.37
2019-03-06T09:25:09.856Z,50.10
2019-03-06T09:27:44.859Z,51.39
2019-03-06T09:30:44.590Z,50.11
2019-03-06T09:33:28.726Z,47.73
2019-03-06T09:36:15.429Z,48.44
2019-03-06T09:39:00.876Z,51.28
2019-03-06T09:41:55.307Z,52.77
2019-03-06T09:44:43.985Z,52.60
2019-03-06T09:47:22.541Z,55.93
2019-03-06T09:50:29.114Z,55.73
2019-03-06T09:53:20.096Z,52.48
2019-03-06T09:55:56.357Z,52.01
2019-03-06T09:58:36.573Z,53.88
2019-03-06T10:01:36.832Z,53.63
2019-03-06T10:04:14.965Z,53.00
2019-03-06T10:07:04.036Z,54.68
2019-03-06T10:09:58.828Z,54.38
2019-03-06T10:12:48.101Z,53.13
2019-03-06T10:15:51.499Z,56.19
2019-03-06T10:18:43.594Z,57.29
2019-03-06T10:21:12.823Z,55.17
2019-03-06T10:23:42.070Z,51.42
2019-03-06T10:26:11.307Z,50.35
2019-03-06T10:28:41.935Z,50.24
2019-03-06T10:31:13.954Z,50.91
2019-03-06T10:33:43.221Z,50.48
2019-03-06T10:36:15.340Z,50.28
2019-03-06T10:38:45.033Z,50.17
2019-03-06T10:41:14.635Z,51.14
2019-03-06T10:43:49.629Z,48.43
2019-03-06T10:46:18.475Z,46.92
2019-03-06T10:48:49.611Z,46.65
2019-03-06T10:51:19.218Z,47.95
2019-03-06T10:53:49.152Z,48.29
2019-03-06T10:56:18.563Z,46.56
2019-03-06T10:58:47.916Z,46.88
2019-03-06T11:01:17.362Z,45.79
2019-03-06T11:03:56.352Z,45.76
2019-03-06T11:06:25.771Z,45.76
2019-03-06T11:08:56.742Z,48.00
2019-03-06T11:11:29.052Z,48.14
2019-03-06T11:14:05.906Z,46.65
2019-03-06T11:16:29.784Z,45.81
2019-03-06T11:19:00.821Z,46.12
2019-03-06T11:21:30.422Z,45.26
2019-03-06T11:23:59.676Z,48.06
2019-03-06T11:26:29.208Z,44.67
2019-03-06T11:29:03.010Z,44.82
2019-03-06T11:31:33.149Z,45.29
2019-03-06T11:34:02.391Z,45.02
2019-03-06T11:36:31.792Z,46.57
2019-03-06T11:39:01.100Z,47.04
2019-03-06T11:41:32.010Z,47.74
2019-03-06T11:44:01.289Z,48.07
2019-03-06T11:46:30.625Z,49.25
2019-03-06T11:49:01.051Z,49.78
2019-03-06T11:51:32.046Z,49.40
2019-03-06T11:54:01.314Z,50.23
2019-03-06T11:56:32.879Z,48.86
2019-03-06T11:59:02.104Z,49.05
2019-03-06T12:01:32.753Z,47.83
2019-03-06T12:04:01.972Z,47.34
2019-03-06T12:06:31.236Z,48.51
2019-03-06T12:09:02.091Z,45.74
2019-03-06T12:11:33.988Z,46.26
2019-03-06T12:14:03.295Z,45.52
2019-03-06T12:16:41.588Z,45.97
2019-03-06T12:19:04.660Z,46.76
2019-03-06T12:21:33.961Z,47.90
2019-03-06T12:24:03.498Z,48.67
2019-03-06T12:26:34.334Z,48.41
2019-03-06T12:29:06.124Z,47.99
2019-03-06T12:31:35.422Z,48.68
2019-03-06T12:34:04.808Z,48.70
2019-03-06T12:36:36.094Z,47.22
2019-03-06T12:39:05.864Z,47.45
2019-03-06T12:41:35.143Z,49.15
2019-03-06T12:44:10.316Z,48.60
2019-03-06T12:46:37.004Z,48.79
2019-03-06T12:49:10.521Z,47.29
2019-03-06T12:51:39.792Z,47.99
2019-03-06T12:54:09.819Z,48.85
2019-03-06T12:56:39.085Z,48.79
2019-03-06T12:59:08.740Z,49.76
2019-03-06T13:01:39.827Z,49.52
2019-03-06T13:04:10.787Z,48.83
2019-03-06T13:06:45.799Z,49.13
2019-03-06T13:09:20.802Z,49.38
2019-03-06T13:11:55.439Z,49.36
2019-03-06T13:14:25.063Z,49.18
2019-03-06T13:17:05.387Z,49.77
2019-03-06T13:19:34.653Z,50.06
2019-03-06T13:22:11.160Z,50.06
2019-03-06T13:24:35.699Z,49.56
2019-03-06T13:27:04.978Z,49.83
2019-03-06T13:29:37.698Z,49.53
2019-03-06T13:32:11.950Z,51.07
2019-03-06T13:34:53.908Z,49.44
2019-03-06T13:37:26.955Z,50.31
2019-03-06T13:39:56.223Z,48.99
2019-03-06T13:42:27.440Z,49.20
2019-03-06T13:44:56.680Z,49.57
2019-03-06T13:47:26.565Z,48.11
2019-03-06T13:49:58.419Z,48.77
2019-03-06T13:52:37.725Z,49.09
2019-03-06T13:55:09.404Z,49.42
2019-03-06T13:57:38.668Z,49.28
2019-03-06T14:00:12.824Z,49.66
2019-03-06T14:02:42.113Z,49.74
2019-03-06T14:05:11.877Z,48.30
2019-03-06T14:07:43.456Z,48.35
2019-03-06T14:10:14.537Z,49.20
2019-03-06T14:12:46.904Z,48.36
2019-03-06T14:15:18.068Z,47.78
2019-03-06T14:17:47.621Z,47.69
2019-03-06T14:20:18.835Z,47.00
2019-03-06T14:22:48.118Z,48.12
2019-03-06T14:25:22.211Z,47.67
2019-03-06T14:27:51.948Z,47.50
2019-03-06T14:30:21.834Z,46.78
2019-03-06T14:32:51.997Z,47.14
2019-03-06T14:35:21.675Z,46.44
2019-03-06T14:37:51.438Z,47.62
2019-03-06T14:40:26.651Z,47.53
2019-03-06T14:42:56.770Z,48.56
2019-03-06T14:45:26.377Z,49.00
2019-03-06T14:47:58.669Z,48.01
2019-03-06T14:50:30.309Z,48.47
2019-03-06T14:53:00.106Z,48.94
2019-03-06T14:55:29.669Z,49.07
2019-03-06T14:57:58.943Z,49.48
2019-03-06T15:00:28.345Z,48.25
2019-03-06T15:02:57.736Z,49.46
2019-03-06T15:05:29.121Z,49.35
2019-03-06T15:07:58.408Z,50.29
2019-03-06T15:10:27.691Z,50.02
2019-03-06T15:12:57.773Z,50.50
2019-03-06T15:15:27.332Z,50.30
2019-03-06T15:17:56.380Z,50.30
2019-03-06T15:20:26.547Z,50.42
2019-03-06T15:22:58.819Z,49.69
2019-03-06T15:25:31.732Z,50.56
2019-03-06T15:28:03.449Z,51.23
2019-03-06T15:30:32.735Z,51.19
2019-03-06T15:33:02.643Z,50.97
2019-03-06T15:35:33.148Z,51.05
2019-03-06T15:38:11.516Z,51.00
2019-03-06T15:40:43.098Z,51.29
2019-03-06T15:43:15.382Z,51.39
2019-03-06T15:45:44.658Z,51.75
2019-03-06T15:48:18.119Z,52.64
2019-03-06T15:50:47.789Z,52.50
2019-03-06T15:53:24.489Z,52.12
2019-03-06T15:55:51.663Z,52.76
2019-03-06T15:58:23.209Z,53.15
2019-03-06T16:00:57.731Z,52.83
2019-03-06T16:03:26.952Z,53.55
2019-03-06T16:05:56.320Z,53.92
2019-03-06T16:08:27.543Z,53.86
2019-03-06T16:10:57.168Z,54.56
2019-03-06T16:13:26.963Z,55.42
2019-03-06T16:15:57.461Z,55.11
2019-03-06T16:18:27.817Z,54.98
2019-03-06T16:20:57.082Z,55.36
2019-03-06T16:23:26.302Z,56.00
2019-03-06T16:25:57.410Z,55.64
2019-03-06T16:28:26.676Z,55.32
2019-03-06T16:30:56.003Z,55.62
2019-03-06T16:33:31.596Z,55.31
2019-03-06T16:36:00.895Z,56.13
2019-03-06T16:38:30.147Z,56.17
2019-03-06T16:41:00.103Z,56.16
2019-03-06T16:43:29.375Z,56.15
2019-03-06T16:45:58.627Z,56.38
2019-03-06T16:48:27.832Z,56.46
2019-03-06T16:50:57.125Z,57.05
2019-03-06T16:53:26.343Z,57.25
2019-03-06T16:55:55.593Z,57.68
2019-03-06T16:58:27.883Z,58.05
2019-03-06T17:00:58.461Z,58.23
2019-03-06T17:03:29.433Z,58.88
2019-03-06T17:06:01.153Z,59.21
2019-03-06T17:08:32.065Z,60.04
2019-03-06T17:11:01.331Z,59.61
2019-03-06T17:13:31.099Z,59.79
2019-03-06T17:16:00.871Z,59.58
2019-03-06T17:18:31.973Z,59.78
2019-03-06T17:21:01.224Z,60.10
2019-03-06T17:23:30.793Z,60.90
2019-03-06T17:26:00.069Z,61.25
2019-03-06T17:28:29.284Z,61.35
2019-03-06T17:30:59.422Z,61.64
2019-03-06T17:33:28.818Z,61.67
2019-03-06T17:35:58.119Z,61.73
2019-03-06T17:38:30.608Z,61.72
2019-03-06T17:40:59.902Z,61.50
2019-03-06T17:43:29.527Z,61.34
2019-03-06T17:45:59.640Z,61.50
2019-03-06T17:48:30.953Z,61.58
2019-03-06T17:51:00.899Z,62.04
2019-03-06T17:53:30.810Z,62.09
2019-03-06T17:56:00.547Z,62.32
2019-03-06T17:58:30.432Z,62.40
2019-03-06T18:01:15.006Z,62.40
2019-03-06T18:04:03.667Z,62.50
2019-03-06T18:06:32.936Z,62.72
2019-03-06T18:09:02.765Z,62.74
2019-03-06T18:11:35.919Z,62.70
2019-03-06T18:14:05.158Z,62.51
2019-03-06T18:16:34.749Z,62.35
2019-03-06T18:19:03.973Z,62.39
2019-03-06T18:21:37.445Z,62.29
2019-03-06T18:24:08.084Z,62.29
2019-03-06T18:26:39.374Z,62.26
2019-03-06T18:29:08.686Z,62.20
2019-03-06T18:31:37.916Z,62.51
2019-03-06T18:34:08.530Z,62.57
2019-03-06T18:36:37.768Z,62.50
2019-03-06T18:39:18.005Z,62.38
2019-03-06T18:41:47.691Z,62.37
2019-03-06T18:44:16.941Z,61.99
2019-03-06T18:46:47.237Z,61.97
2019-03-06T18:49:16.530Z,61.94
2019-03-06T18:51:45.797Z,62.10
2019-03-06T18:54:15.014Z,62.19
2019-03-06T18:56:44.627Z,61.93
2019-03-06T18:59:15.391Z,61.93
2019-03-06T19:01:44.644Z,61.76
2019-03-06T19:04:14.258Z,61.67
2019-03-06T19:06:44.135Z,62.33
2019-03-06T19:09:13.394Z,62.29
2019-03-06T19:11:43.035Z,62.23
2019-03-06T19:14:12.290Z,62.20
2019-03-06T19:16:41.697Z,62.12
2019-03-06T19:19:13.674Z,61.84
2019-03-06T19:21:45.358Z,61.93
2019-03-06T19:24:14.570Z,62.13
2019-03-06T19:26:44.142Z,62.40
2019-03-06T19:29:14.365Z,62.68
2019-03-06T19:31:43.598Z,62.70
2019-03-06T19:34:13.173Z,63.08
2019-03-06T19:36:42.402Z,63.45
2019-03-06T19:39:11.623Z,63.48
2019-03-06T19:41:40.830Z,63.73
2019-03-06T19:44:10.094Z,63.88
2019-03-06T19:46:39.311Z,64.08
2019-03-06T19:49:08.982Z,64.06
2019-03-06T19:51:38.195Z,64.22
2019-03-06T19:54:07.445Z,64.52
2019-03-06T19:56:36.649Z,64.61
2019-03-06T19:59:05.905Z,64.66
2019-03-06T20:01:35.112Z,64.86
2019-03-06T20:04:04.724Z,64.99
2019-03-06T20:06:35.150Z,65.11
2019-03-06T20:09:09.882Z,65.11
2019-03-06T20:11:42.503Z,65.21
2019-03-06T20:14:13.665Z,64.97
2019-03-06T20:16:42.887Z,65.25
2019-03-06T20:19:12.600Z,65.23
2019-03-06T20:21:49.586Z,65.28
2019-03-06T20:24:18.897Z,65.21
2019-03-06T20:26:48.129Z,65.13
2019-03-06T20:29:17.671Z,64.79
2019-03-06T20:31:49.156Z,64.88
2019-03-06T20:34:18.819Z,64.60
2019-03-06T20:36:48.896Z,64.67
2019-03-06T20:39:19.093Z,64.30
2019-03-06T20:41:48.338Z,63.90
2019-03-06T20:44:17.949Z,63.80
2019-03-06T20:46:49.719Z,63.70
2019-03-06T20:49:19.839Z,63.77
2019-03-06T20:51:49.369Z,63.95
2019-03-06T20:54:18.631Z,63.67
2019-03-06T20:56:47.896Z,63.64
2019-03-06T20:59:20.149Z,63.72
2019-03-06T21:01:49.376Z,63.74
2019-03-06T21:04:20.212Z,63.37
2019-03-06T21:06:49.710Z,63.33
2019-03-06T21:09:19.209Z,63.21
2019-03-06T21:11:48.707Z,63.04
2019-03-06T21:14:17.981Z,62.86
2019-03-06T21:16:47.186Z,62.81
2019-03-06T21:19:16.425Z,62.70
2019-03-06T21:21:45.888Z,62.92
2019-03-06T21:24:17.459Z,62.83
2019-03-06T21:26:46.693Z,63.04
2019-03-06T21:29:15.940Z,63.37
2019-03-06T21:31:45.159Z,63.43
2019-03-06T21:34:16.148Z,63.71
2019-03-06T21:36:45.370Z,63.85
2019-03-06T21:39:36.777Z,64.11
2019-03-06T21:42:07.080Z,64.18
2019-03-06T21:44:37.511Z,64.22
2019-03-06T21:47:06.866Z,64.40
2019-03-06T21:49:36.352Z,64.51
2019-03-06T21:52:05.943Z,64.39
2019-03-06T21:54:37.881Z,64.57
2019-03-06T21:57:08.323Z,64.75
2019-03-06T21:59:37.564Z,64.59
2019-03-06T22:02:06.788Z,64.52
2019-03-06T22:04:36.340Z,64.32
2019-03-06T22:07:05.875Z,64.46
2019-03-06T22:09:42.181Z,64.13
2019-03-06T22:12:11.998Z,64.16
2019-03-06T22:14:41.226Z,64.20
2019-03-06T22:17:10.446Z,64.34
2019-03-06T22:19:39.695Z,64.78
2019-03-06T22:22:08.907Z,65.20
2019-03-06T22:24:38.168Z,65.08
2019-03-06T22:27:07.660Z,64.94
2019-03-06T22:29:36.911Z,64.67
2019-03-06T22:32:06.202Z,64.54
2019-03-06T22:34:35.464Z,64.43
2019-03-06T22:37:05.006Z,64.44
2019-03-06T22:39:34.265Z,64.51
2019-03-06T22:42:03.482Z,64.67
2019-03-06T22:44:33.645Z,64.74
2019-03-06T22:47:06.139Z,65.05
2019-03-06T22:49:35.383Z,64.99
2019-03-06T22:52:04.651Z,65.14
2019-03-06T22:54:33.911Z,65.22
2019-03-06T22:57:03.194Z,65.19
2019-03-06T22:59:32.414Z,65.16
2019-03-06T23:02:02.243Z,65.00
2019-03-06T23:04:32.536Z,65.16
2019-03-06T23:07:02.435Z,65.30
2019-03-06T23:09:31.670Z,65.35
2019-03-06T23:12:00.914Z,65.12
2019-03-06T23:14:31.348Z,65.11
2019-03-06T23:17:01.078Z,64.92
2019-03-06T23:19:31.778Z,64.74
2019-03-06T23:22:01.055Z,64.65
2019-03-06T23:24:30.657Z,64.68
2019-03-06T23:26:59.895Z,64.89
2019-03-06T23:29:31.949Z,64.83
2019-03-06T23:32:01.190Z,64.83
2019-03-06T23:34:30.482Z,65.13
2019-03-06T23:36:59.714Z,65.05
2019-03-06T23:39:28.931Z,64.81
2019-03-06T23:41:58.365Z,64.65
2019-03-06T23:44:27.881Z,64.98
2019-03-06T23:46:57.309Z,64.69
2019-03-06T23:49:26.524Z,64.59
2019-03-06T23:52:10.258Z,64.43
2019-03-06T23:54:39.645Z,64.51
2019-03-06T23:57:08.937Z,64.05
2019-03-06T23:59:38.978Z,64.19
